sensor_id;sensor_type;location;lat;lon;timestamp;P1;durP1;ratioP1;P2;durP2;ratioP2
13590;SDS011;6866;50.778;7.206;2023-04-03T00:00:53;4.78;;;2.00;;
13590;SDS011;6866;50.778;7.206;2023-04-03T00:03:19;4.80;;;2.03;;
13590;SDS011;6866;50.778;7.206;2023-04-03T00:05:45;3.97;;;1.73;;
13590;SDS011;6866;50.778;7.206;2023-04-03T00:08:11;5.55;;;1.88;;
13590;SDS011;6866;50.778;7.206;2023-04-03T00:10:37;5.05;;;2.13;;
13590;SDS011;6866;50.778;7.206;2023-04-03T00:13:03;4.95;;;1.95;;
13590;SDS011;6866;50.778;7.206;2023-04-03T00:15:29;6.93;;;1.90;;
13590;SDS011;6866;50.778;7.206;2023-04-03T00:17:55;4.57;;;1.80;;
13590;SDS011;6866;50.778;7.206;2023-04-03T00:20:20;4.70;;;1.92;;
13590;SDS011;6866;50.778;7.206;2023-04-03T00:22:46;5.60;;;2.10;;
13590;SDS011;6866;50.778;7.206;2023-04-03T00:25:11;4.63;;;1.58;;
13590;SDS011;6866;50.778;7.206;2023-04-03T00:27:37;4.78;;;2.15;;
13590;SDS011;6866;50.778;7.206;2023-04-03T00:30:04;5.40;;;2.00;;
13590;SDS011;6866;50.778;7.206;2023-04-03T00:32:31;7.40;;;2.20;;
13590;SDS011;6866;50.778;7.206;2023-04-03T00:34:57;7.28;;;1.60;;
13590;SDS011;6866;50.778;7.206;2023-04-03T00:37:22;5.65;;;1.90;;
13590;SDS011;6866;50.778;7.206;2023-04-03T00:39:48;5.95;;;1.90;;
13590;SDS011;6866;50.778;7.206;2023-04-03T00:42:14;8.00;;;2.10;;
13590;SDS011;6866;50.778;7.206;2023-04-03T00:47:05;5.15;;;2.08;;
13590;SDS011;6866;50.778;7.206;2023-04-03T00:49:34;5.78;;;2.05;;
13590;SDS011;6866;50.778;7.206;2023-04-03T00:52:02;6.15;;;2.17;;
13590;SDS011;6866;50.778;7.206;2023-04-03T00:54:28;9.27;;;1.90;;
13590;SDS011;6866;50.778;7.206;2023-04-03T00:56:54;6.72;;;2.33;;
13590;SDS011;6866;50.778;7.206;2023-04-03T00:59:23;6.13;;;2.28;;
13590;SDS011;6866;50.778;7.206;2023-04-03T01:04:28;5.45;;;2.35;;
13590;SDS011;6866;50.778;7.206;2023-04-03T01:06:56;5.32;;;1.92;;
13590;SDS011;6866;50.778;7.206;2023-04-03T01:09:24;5.25;;;2.10;;
13590;SDS011;6866;50.778;7.206;2023-04-03T01:11:51;4.93;;;2.15;;
13590;SDS011;6866;50.778;7.206;2023-04-03T01:14:16;4.80;;;1.80;;
13590;SDS011;6866;50.778;7.206;2023-04-03T01:16:42;6.18;;;2.00;;
13590;SDS011;6866;50.778;7.206;2023-04-03T01:19:08;5.13;;;1.80;;
13590;SDS011;6866;50.778;7.206;2023-04-03T01:24:36;6.10;;;1.80;;
13590;SDS011;6866;50.778;7.206;2023-04-03T01:27:06;4.40;;;1.95;;
13590;SDS011;6866;50.778;7.206;2023-04-03T01:29:35;4.22;;;1.90;;
13590;SDS011;6866;50.778;7.206;2023-04-03T01:32:01;5.07;;;2.00;;
13590;SDS011;6866;50.778;7.206;2023-04-03T01:34:28;4.45;;;1.98;;
13590;SDS011;6866;50.778;7.206;2023-04-03T01:36:54;4.88;;;2.00;;
13590;SDS011;6866;50.778;7.206;2023-04-03T01:39:20;7.35;;;2.00;;
13590;SDS011;6866;50.778;7.206;2023-04-03T01:41:46;6.10;;;1.92;;
13590;SDS011;6866;50.778;7.206;2023-04-03T01:44:12;5.03;;;1.85;;
13590;SDS011;6866;50.778;7.206;2023-04-03T01:46:38;6.63;;;2.30;;
13590;SDS011;6866;50.778;7.206;2023-04-03T01:49:04;4.97;;;1.95;;
13590;SDS011;6866;50.778;7.206;2023-04-03T01:51:30;5.65;;;1.70;;
13590;SDS011;6866;50.778;7.206;2023-04-03T01:53:56;5.70;;;1.80;;
13590;SDS011;6866;50.778;7.206;2023-04-03T01:56:21;4.95;;;1.73;;
13590;SDS011;6866;50.778;7.206;2023-04-03T01:58:47;4.20;;;1.88;;
13590;SDS011;6866;50.778;7.206;2023-04-03T02:01:13;4.45;;;1.90;;
13590;SDS011;6866;50.778;7.206;2023-04-03T02:03:38;5.10;;;1.80;;
13590;SDS011;6866;50.778;7.206;2023-04-03T02:06:04;7.90;;;1.55;;
13590;SDS011;6866;50.778;7.206;2023-04-03T02:08:30;6.75;;;2.35;;
13590;SDS011;6866;50.778;7.206;2023-04-03T02:10:55;7.65;;;2.30;;
13590;SDS011;6866;50.778;7.206;2023-04-03T02:13:21;8.77;;;2.28;;
13590;SDS011;6866;50.778;7.206;2023-04-03T02:15:46;4.20;;;2.00;;
13590;SDS011;6866;50.778;7.206;2023-04-03T02:18:12;5.85;;;2.22;;
13590;SDS011;6866;50.778;7.206;2023-04-03T02:20:38;5.70;;;2.15;;
13590;SDS011;6866;50.778;7.206;2023-04-03T02:23:04;6.07;;;2.00;;
13590;SDS011;6866;50.778;7.206;2023-04-03T02:25:30;5.22;;;1.98;;
13590;SDS011;6866;50.778;7.206;2023-04-03T02:27:56;6.50;;;2.00;;
13590;SDS011;6866;50.778;7.206;2023-04-03T02:30:22;5.25;;;2.00;;
13590;SDS011;6866;50.778;7.206;2023-04-03T02:32:47;5.47;;;2.10;;
13590;SDS011;6866;50.778;7.206;2023-04-03T02:35:13;7.78;;;2.00;;
13590;SDS011;6866;50.778;7.206;2023-04-03T02:37:39;8.30;;;2.00;;
13590;SDS011;6866;50.778;7.206;2023-04-03T02:40:05;7.65;;;2.22;;
13590;SDS011;6866;50.778;7.206;2023-04-03T02:42:31;4.45;;;2.08;;
13590;SDS011;6866;50.778;7.206;2023-04-03T02:44:57;4.10;;;1.92;;
13590;SDS011;6866;50.778;7.206;2023-04-03T02:47:22;4.75;;;1.73;;
13590;SDS011;6866;50.778;7.206;2023-04-03T02:49:48;5.35;;;1.83;;
13590;SDS011;6866;50.778;7.206;2023-04-03T02:52:14;5.72;;;1.98;;
13590;SDS011;6866;50.778;7.206;2023-04-03T02:54:40;7.95;;;2.20;;
13590;SDS011;6866;50.778;7.206;2023-04-03T02:57:05;6.50;;;2.25;;
13590;SDS011;6866;50.778;7.206;2023-04-03T02:59:33;5.80;;;2.30;;
13590;SDS011;6866;50.778;7.206;2023-04-03T03:02:00;5.28;;;2.00;;
13590;SDS011;6866;50.778;7.206;2023-04-03T03:04:25;6.70;;;2.35;;
13590;SDS011;6866;50.778;7.206;2023-04-03T03:06:51;4.15;;;1.83;;
13590;SDS011;6866;50.778;7.206;2023-04-03T03:09:17;6.20;;;2.13;;
13590;SDS011;6866;50.778;7.206;2023-04-03T03:11:43;7.18;;;2.08;;
13590;SDS011;6866;50.778;7.206;2023-04-03T03:14:08;4.50;;;2.10;;
13590;SDS011;6866;50.778;7.206;2023-04-03T03:16:34;5.18;;;2.20;;
13590;SDS011;6866;50.778;7.206;2023-04-03T03:19:00;5.35;;;2.00;;
13590;SDS011;6866;50.778;7.206;2023-04-03T03:21:25;7.28;;;2.28;;
13590;SDS011;6866;50.778;7.206;2023-04-03T03:23:51;8.45;;;2.47;;
13590;SDS011;6866;50.778;7.206;2023-04-03T03:26:16;5.65;;;2.13;;
13590;SDS011;6866;50.778;7.206;2023-04-03T03:28:42;5.00;;;2.30;;
13590;SDS011;6866;50.778;7.206;2023-04-03T03:31:08;5.78;;;2.30;;
13590;SDS011;6866;50.778;7.206;2023-04-03T03:33:34;6.28;;;2.10;;
13590;SDS011;6866;50.778;7.206;2023-04-03T03:35:59;6.38;;;2.47;;
13590;SDS011;6866;50.778;7.206;2023-04-03T03:38:25;5.50;;;1.98;;
13590;SDS011;6866;50.778;7.206;2023-04-03T03:40:51;4.35;;;2.00;;
13590;SDS011;6866;50.778;7.206;2023-04-03T03:43:17;6.13;;;2.35;;
13590;SDS011;6866;50.778;7.206;2023-04-03T03:45:43;5.93;;;2.17;;
13590;SDS011;6866;50.778;7.206;2023-04-03T03:48:10;6.13;;;2.90;;
13590;SDS011;6866;50.778;7.206;2023-04-03T03:50:36;4.72;;;2.42;;
13590;SDS011;6866;50.778;7.206;2023-04-03T03:53:02;8.32;;;2.30;;
13590;SDS011;6866;50.778;7.206;2023-04-03T03:55:27;5.05;;;2.00;;
13590;SDS011;6866;50.778;7.206;2023-04-03T03:57:53;4.95;;;2.20;;
13590;SDS011;6866;50.778;7.206;2023-04-03T04:00:18;5.43;;;2.20;;
13590;SDS011;6866;50.778;7.206;2023-04-03T04:02:44;6.15;;;2.42;;
13590;SDS011;6866;50.778;7.206;2023-04-03T04:05:10;4.57;;;2.00;;
13590;SDS011;6866;50.778;7.206;2023-04-03T04:07:36;4.97;;;2.22;;
13590;SDS011;6866;50.778;7.206;2023-04-03T04:10:02;3.55;;;2.10;;
13590;SDS011;6866;50.778;7.206;2023-04-03T04:12:28;4.78;;;2.08;;
13590;SDS011;6866;50.778;7.206;2023-04-03T04:14:54;4.82;;;2.42;;
13590;SDS011;6866;50.778;7.206;2023-04-03T04:17:19;4.05;;;1.90;;
13590;SDS011;6866;50.778;7.206;2023-04-03T04:19:45;5.30;;;2.15;;
13590;SDS011;6866;50.778;7.206;2023-04-03T04:22:11;6.43;;;2.20;;
13590;SDS011;6866;50.778;7.206;2023-04-03T04:24:36;6.65;;;2.72;;
13590;SDS011;6866;50.778;7.206;2023-04-03T04:27:02;5.25;;;2.22;;
13590;SDS011;6866;50.778;7.206;2023-04-03T04:29:28;6.53;;;2.22;;
13590;SDS011;6866;50.778;7.206;2023-04-03T04:31:53;4.40;;;1.83;;
13590;SDS011;6866;50.778;7.206;2023-04-03T04:34:19;5.85;;;2.28;;
13590;SDS011;6866;50.778;7.206;2023-04-03T04:36:45;8.77;;;2.47;;
13590;SDS011;6866;50.778;7.206;2023-04-03T04:39:10;7.63;;;2.58;;
13590;SDS011;6866;50.778;7.206;2023-04-03T04:41:36;7.47;;;2.50;;
13590;SDS011;6866;50.778;7.206;2023-04-03T04:44:01;6.03;;;2.38;;
13590;SDS011;6866;50.778;7.206;2023-04-03T04:46:27;5.88;;;2.50;;
13590;SDS011;6866;50.778;7.206;2023-04-03T04:48:53;8.10;;;2.53;;
13590;SDS011;6866;50.778;7.206;2023-04-03T04:51:18;6.32;;;2.63;;
13590;SDS011;6866;50.778;7.206;2023-04-03T04:53:44;7.80;;;3.15;;
13590;SDS011;6866;50.778;7.206;2023-04-03T04:56:10;6.95;;;2.72;;
13590;SDS011;6866;50.778;7.206;2023-04-03T04:58:36;7.57;;;2.35;;
13590;SDS011;6866;50.778;7.206;2023-04-03T05:01:03;5.45;;;2.38;;
13590;SDS011;6866;50.778;7.206;2023-04-03T05:03:33;7.63;;;2.77;;
13590;SDS011;6866;50.778;7.206;2023-04-03T05:05:58;6.13;;;2.40;;
13590;SDS011;6866;50.778;7.206;2023-04-03T05:08:24;6.47;;;2.42;;
13590;SDS011;6866;50.778;7.206;2023-04-03T05:10:50;5.07;;;2.15;;
13590;SDS011;6866;50.778;7.206;2023-04-03T05:13:16;4.53;;;2.40;;
13590;SDS011;6866;50.778;7.206;2023-04-03T05:15:41;9.05;;;2.97;;
13590;SDS011;6866;50.778;7.206;2023-04-03T05:18:07;10.70;;;2.47;;
13590;SDS011;6866;50.778;7.206;2023-04-03T05:20:33;10.77;;;2.88;;
13590;SDS011;6866;50.778;7.206;2023-04-03T05:22:59;8.38;;;2.63;;
13590;SDS011;6866;50.778;7.206;2023-04-03T05:25:25;5.55;;;2.65;;
13590;SDS011;6866;50.778;7.206;2023-04-03T05:27:51;5.43;;;2.60;;
13590;SDS011;6866;50.778;7.206;2023-04-03T05:30:17;10.82;;;2.58;;
13590;SDS011;6866;50.778;7.206;2023-04-03T05:32:43;5.63;;;2.35;;
13590;SDS011;6866;50.778;7.206;2023-04-03T05:35:09;8.00;;;2.50;;
13590;SDS011;6866;50.778;7.206;2023-04-03T05:37:35;10.05;;;2.45;;
13590;SDS011;6866;50.778;7.206;2023-04-03T05:40:01;6.40;;;2.25;;
13590;SDS011;6866;50.778;7.206;2023-04-03T05:42:27;7.53;;;2.35;;
13590;SDS011;6866;50.778;7.206;2023-04-03T05:44:52;10.57;;;3.13;;
13590;SDS011;6866;50.778;7.206;2023-04-03T05:47:18;5.28;;;2.30;;
13590;SDS011;6866;50.778;7.206;2023-04-03T05:49:44;5.00;;;2.28;;
13590;SDS011;6866;50.778;7.206;2023-04-03T05:52:18;8.57;;;2.63;;
13590;SDS011;6866;50.778;7.206;2023-04-03T05:54:47;5.85;;;2.28;;
13590;SDS011;6866;50.778;7.206;2023-04-03T05:57:13;7.70;;;2.53;;
13590;SDS011;6866;50.778;7.206;2023-04-03T05:59:40;7.90;;;2.25;;
13590;SDS011;6866;50.778;7.206;2023-04-03T06:02:07;7.90;;;2.30;;
13590;SDS011;6866;50.778;7.206;2023-04-03T06:04:34;4.75;;;1.75;;
13590;SDS011;6866;50.778;7.206;2023-04-03T06:06:59;6.70;;;2.10;;
13590;SDS011;6866;50.778;7.206;2023-04-03T06:09:26;7.95;;;1.98;;
13590;SDS011;6866;50.778;7.206;2023-04-03T06:11:53;7.22;;;1.92;;
13590;SDS011;6866;50.778;7.206;2023-04-03T06:14:19;6.20;;;2.13;;
13590;SDS011;6866;50.778;7.206;2023-04-03T06:16:45;7.55;;;1.95;;
13590;SDS011;6866;50.778;7.206;2023-04-03T06:19:11;7.43;;;2.13;;
13590;SDS011;6866;50.778;7.206;2023-04-03T06:21:37;6.72;;;1.90;;
13590;SDS011;6866;50.778;7.206;2023-04-03T06:24:03;9.45;;;1.73;;
13590;SDS011;6866;50.778;7.206;2023-04-03T06:26:29;5.85;;;1.85;;
13590;SDS011;6866;50.778;7.206;2023-04-03T06:28:55;6.63;;;1.80;;
13590;SDS011;6866;50.778;7.206;2023-04-03T06:31:22;5.65;;;1.80;;
13590;SDS011;6866;50.778;7.206;2023-04-03T06:33:48;3.58;;;1.52;;
13590;SDS011;6866;50.778;7.206;2023-04-03T06:36:13;6.18;;;2.00;;
13590;SDS011;6866;50.778;7.206;2023-04-03T06:38:39;4.85;;;1.73;;
13590;SDS011;6866;50.778;7.206;2023-04-03T06:41:04;7.32;;;1.90;;
13590;SDS011;6866;50.778;7.206;2023-04-03T06:43:30;4.70;;;1.77;;
13590;SDS011;6866;50.778;7.206;2023-04-03T06:45:56;5.53;;;1.70;;
13590;SDS011;6866;50.778;7.206;2023-04-03T06:48:22;6.97;;;2.20;;
13590;SDS011;6866;50.778;7.206;2023-04-03T06:50:48;6.65;;;1.92;;
13590;SDS011;6866;50.778;7.206;2023-04-03T06:53:13;4.88;;;1.75;;
13590;SDS011;6866;50.778;7.206;2023-04-03T06:55:39;5.82;;;1.73;;
13590;SDS011;6866;50.778;7.206;2023-04-03T06:58:06;6.50;;;1.80;;
13590;SDS011;6866;50.778;7.206;2023-04-03T07:00:32;5.45;;;1.90;;
13590;SDS011;6866;50.778;7.206;2023-04-03T07:02:58;6.68;;;1.88;;
13590;SDS011;6866;50.778;7.206;2023-04-03T07:05:24;4.32;;;1.70;;
13590;SDS011;6866;50.778;7.206;2023-04-03T07:07:51;6.15;;;1.98;;
13590;SDS011;6866;50.778;7.206;2023-04-03T07:10:16;5.90;;;1.83;;
13590;SDS011;6866;50.778;7.206;2023-04-03T07:12:42;5.63;;;1.92;;
13590;SDS011;6866;50.778;7.206;2023-04-03T07:15:08;5.53;;;1.70;;
13590;SDS011;6866;50.778;7.206;2023-04-03T07:17:34;4.55;;;1.42;;
13590;SDS011;6866;50.778;7.206;2023-04-03T07:20:00;4.88;;;1.65;;
13590;SDS011;6866;50.778;7.206;2023-04-03T07:22:26;7.20;;;1.90;;
13590;SDS011;6866;50.778;7.206;2023-04-03T07:24:52;4.75;;;1.75;;
13590;SDS011;6866;50.778;7.206;2023-04-03T07:27:17;4.65;;;1.67;;
13590;SDS011;6866;50.778;7.206;2023-04-03T07:29:43;6.30;;;2.10;;
13590;SDS011;6866;50.778;7.206;2023-04-03T07:32:09;7.45;;;1.90;;
13590;SDS011;6866;50.778;7.206;2023-04-03T07:34:35;6.47;;;2.10;;
13590;SDS011;6866;50.778;7.206;2023-04-03T07:37:02;4.35;;;1.48;;
13590;SDS011;6866;50.778;7.206;2023-04-03T07:39:27;5.25;;;1.80;;
13590;SDS011;6866;50.778;7.206;2023-04-03T07:41:54;4.75;;;1.88;;
13590;SDS011;6866;50.778;7.206;2023-04-03T07:44:22;5.03;;;1.50;;
13590;SDS011;6866;50.778;7.206;2023-04-03T07:46:49;5.05;;;1.88;;
13590;SDS011;6866;50.778;7.206;2023-04-03T07:49:15;5.55;;;1.75;;
13590;SDS011;6866;50.778;7.206;2023-04-03T07:51:43;6.28;;;1.70;;
13590;SDS011;6866;50.778;7.206;2023-04-03T07:54:09;6.95;;;2.03;;
13590;SDS011;6866;50.778;7.206;2023-04-03T07:56:34;5.78;;;1.92;;
13590;SDS011;6866;50.778;7.206;2023-04-03T07:59:00;8.80;;;1.92;;
13590;SDS011;6866;50.778;7.206;2023-04-03T08:01:25;7.63;;;1.98;;
13590;SDS011;6866;50.778;7.206;2023-04-03T08:03:51;7.28;;;2.05;;
13590;SDS011;6866;50.778;7.206;2023-04-03T08:06:17;5.00;;;1.65;;
13590;SDS011;6866;50.778;7.206;2023-04-03T08:08:42;5.80;;;2.05;;
13590;SDS011;6866;50.778;7.206;2023-04-03T08:11:09;4.57;;;1.75;;
13590;SDS011;6866;50.778;7.206;2023-04-03T08:13:35;5.40;;;1.83;;
13590;SDS011;6866;50.778;7.206;2023-04-03T08:16:08;7.50;;;1.92;;
13590;SDS011;6866;50.778;7.206;2023-04-03T08:18:37;6.90;;;1.85;;
13590;SDS011;6866;50.778;7.206;2023-04-03T08:21:10;5.57;;;1.75;;
13590;SDS011;6866;50.778;7.206;2023-04-03T08:23:37;5.95;;;1.67;;
13590;SDS011;6866;50.778;7.206;2023-04-03T08:26:14;4.20;;;1.67;;
13590;SDS011;6866;50.778;7.206;2023-04-03T08:28:41;5.32;;;1.70;;
13590;SDS011;6866;50.778;7.206;2023-04-03T08:31:08;5.20;;;1.98;;
13590;SDS011;6866;50.778;7.206;2023-04-03T08:33:37;6.40;;;1.90;;
13590;SDS011;6866;50.778;7.206;2023-04-03T08:36:04;4.82;;;1.60;;
13590;SDS011;6866;50.778;7.206;2023-04-03T08:38:30;7.10;;;1.80;;
13590;SDS011;6866;50.778;7.206;2023-04-03T08:46:35;5.18;;;1.70;;
13590;SDS011;6866;50.778;7.206;2023-04-03T08:49:29;5.10;;;1.63;;
13590;SDS011;6866;50.778;7.206;2023-04-03T08:51:58;7.93;;;1.90;;
13590;SDS011;6866;50.778;7.206;2023-04-03T08:54:41;6.75;;;1.92;;
13590;SDS011;6866;50.778;7.206;2023-04-03T08:57:20;5.55;;;1.70;;
13590;SDS011;6866;50.778;7.206;2023-04-03T09:02:46;6.40;;;1.55;;
13590;SDS011;6866;50.778;7.206;2023-04-03T09:07:46;6.78;;;1.92;;
13590;SDS011;6866;50.778;7.206;2023-04-03T09:10:19;4.80;;;1.55;;
13590;SDS011;6866;50.778;7.206;2023-04-03T09:12:58;4.57;;;1.80;;
13590;SDS011;6866;50.778;7.206;2023-04-03T09:15:28;5.60;;;1.60;;
13590;SDS011;6866;50.778;7.206;2023-04-03T09:23:28;6.28;;;1.50;;
13590;SDS011;6866;50.778;7.206;2023-04-03T09:26:18;7.25;;;1.65;;
13590;SDS011;6866;50.778;7.206;2023-04-03T09:28:51;5.00;;;1.35;;
13590;SDS011;6866;50.778;7.206;2023-04-03T09:31:20;5.35;;;1.67;;
13590;SDS011;6866;50.778;7.206;2023-04-03T09:33:50;7.75;;;1.83;;
13590;SDS011;6866;50.778;7.206;2023-04-03T09:39:07;5.63;;;1.50;;
13590;SDS011;6866;50.778;7.206;2023-04-03T09:41:41;5.97;;;1.50;;
13590;SDS011;6866;50.778;7.206;2023-04-03T09:46:46;5.57;;;1.52;;
13590;SDS011;6866;50.778;7.206;2023-04-03T09:49:12;4.15;;;1.48;;
13590;SDS011;6866;50.778;7.206;2023-04-03T09:51:38;9.95;;;1.60;;
13590;SDS011;6866;50.778;7.206;2023-04-03T09:54:23;4.05;;;1.30;;
13590;SDS011;6866;50.778;7.206;2023-04-03T09:56:57;6.13;;;1.40;;
13590;SDS011;6866;50.778;7.206;2023-04-03T09:59:28;4.35;;;1.30;;
13590;SDS011;6866;50.778;7.206;2023-04-03T10:01:57;3.53;;;1.30;;
13590;SDS011;6866;50.778;7.206;2023-04-03T10:04:43;3.80;;;1.50;;
13590;SDS011;6866;50.778;7.206;2023-04-03T10:07:26;6.30;;;1.40;;
13590;SDS011;6866;50.778;7.206;2023-04-03T10:12:22;4.32;;;1.05;;
13590;SDS011;6866;50.778;7.206;2023-04-03T10:20:22;3.55;;;1.30;;
13590;SDS011;6866;50.778;7.206;2023-04-03T10:23:18;4.03;;;0.93;;
13590;SDS011;6866;50.778;7.206;2023-04-03T10:31:46;3.85;;;1.10;;
13590;SDS011;6866;50.778;7.206;2023-04-03T10:33:59;4.50;;;1.27;;
13590;SDS011;6866;50.778;7.206;2023-04-03T10:36:42;3.28;;;1.10;;
13590;SDS011;6866;50.778;7.206;2023-04-03T10:45:26;4.53;;;1.13;;
13590;SDS011;6866;50.778;7.206;2023-04-03T10:54:17;4.53;;;1.45;;
13590;SDS011;6866;50.778;7.206;2023-04-03T11:02:58;4.97;;;1.13;;
13590;SDS011;6866;50.778;7.206;2023-04-03T11:07:43;4.82;;;0.90;;
13590;SDS011;6866;50.778;7.206;2023-04-03T11:10:59;3.07;;;1.30;;
13590;SDS011;6866;50.778;7.206;2023-04-03T11:13:24;4.78;;;1.20;;
13590;SDS011;6866;50.778;7.206;2023-04-03T11:16:25;5.47;;;1.35;;
13590;SDS011;6866;50.778;7.206;2023-04-03T11:18:54;3.42;;;1.10;;
13590;SDS011;6866;50.778;7.206;2023-04-03T11:21:31;2.75;;;1.00;;
13590;SDS011;6866;50.778;7.206;2023-04-03T11:24:02;4.20;;;1.10;;
13590;SDS011;6866;50.778;7.206;2023-04-03T11:26:35;4.38;;;1.10;;
13590;SDS011;6866;50.778;7.206;2023-04-03T11:29:06;4.28;;;1.00;;
13590;SDS011;6866;50.778;7.206;2023-04-03T11:35:07;3.22;;;0.95;;
13590;SDS011;6866;50.778;7.206;2023-04-03T11:37:34;4.10;;;1.00;;
13590;SDS011;6866;50.778;7.206;2023-04-03T11:40:08;4.85;;;1.05;;
13590;SDS011;6866;50.778;7.206;2023-04-03T11:47:51;3.42;;;1.08;;
13590;SDS011;6866;50.778;7.206;2023-04-03T11:50:32;4.55;;;1.20;;
13590;SDS011;6866;50.778;7.206;2023-04-03T12:05:53;3.90;;;1.10;;
13590;SDS011;6866;50.778;7.206;2023-04-03T12:13:40;3.67;;;0.98;;
13590;SDS011;6866;50.778;7.206;2023-04-03T12:16:18;4.35;;;1.20;;
13590;SDS011;6866;50.778;7.206;2023-04-03T12:27:27;4.78;;;1.20;;
13590;SDS011;6866;50.778;7.206;2023-04-03T12:29:59;4.40;;;1.45;;
13590;SDS011;6866;50.778;7.206;2023-04-03T12:35:21;4.10;;;1.10;;
13590;SDS011;6866;50.778;7.206;2023-04-03T12:51:54;2.53;;;0.93;;
13590;SDS011;6866;50.778;7.206;2023-04-03T12:54:26;4.68;;;1.20;;
13590;SDS011;6866;50.778;7.206;2023-04-03T12:57:12;5.10;;;1.10;;
13590;SDS011;6866;50.778;7.206;2023-04-03T12:59:42;2.58;;;0.90;;
13590;SDS011;6866;50.778;7.206;2023-04-03T13:02:15;4.40;;;1.30;;
13590;SDS011;6866;50.778;7.206;2023-04-03T13:04:49;5.70;;;1.50;;
13590;SDS011;6866;50.778;7.206;2023-04-03T13:07:23;3.97;;;1.30;;
13590;SDS011;6866;50.778;7.206;2023-04-03T13:12:45;3.72;;;1.10;;
13590;SDS011;6866;50.778;7.206;2023-04-03T13:15:19;4.25;;;1.30;;
13590;SDS011;6866;50.778;7.206;2023-04-03T13:17:50;3.03;;;1.05;;
13590;SDS011;6866;50.778;7.206;2023-04-03T13:20:28;4.50;;;1.50;;
13590;SDS011;6866;50.778;7.206;2023-04-03T13:23:03;6.00;;;1.45;;
13590;SDS011;6866;50.778;7.206;2023-04-03T13:25:35;3.70;;;1.73;;
13590;SDS011;6866;50.778;7.206;2023-04-03T13:28:05;3.47;;;1.25;;
13590;SDS011;6866;50.778;7.206;2023-04-03T13:30:37;2.97;;;1.00;;
13590;SDS011;6866;50.778;7.206;2023-04-03T13:33:05;2.95;;;1.10;;
13590;SDS011;6866;50.778;7.206;2023-04-03T13:35:44;3.60;;;1.30;;
13590;SDS011;6866;50.778;7.206;2023-04-03T13:38:29;3.92;;;1.20;;
13590;SDS011;6866;50.778;7.206;2023-04-03T13:40:59;4.55;;;1.20;;
13590;SDS011;6866;50.778;7.206;2023-04-03T13:43:28;5.07;;;1.52;;
13590;SDS011;6866;50.778;7.206;2023-04-03T13:48:42;4.55;;;1.20;;
13590;SDS011;6866;50.778;7.206;2023-04-03T13:53:47;2.92;;;1.05;;
13590;SDS011;6866;50.778;7.206;2023-04-03T13:56:26;4.05;;;1.38;;
13590;SDS011;6866;50.778;7.206;2023-04-03T14:06:44;5.20;;;1.25;;
13590;SDS011;6866;50.778;7.206;2023-04-03T14:09:11;5.90;;;1.70;;
13590;SDS011;6866;50.778;7.206;2023-04-03T14:11:37;5.85;;;1.48;;
13590;SDS011;6866;50.778;7.206;2023-04-03T14:14:12;4.18;;;1.50;;
13590;SDS011;6866;50.778;7.206;2023-04-03T14:16:40;3.47;;;1.25;;
13590;SDS011;6866;50.778;7.206;2023-04-03T14:19:11;3.88;;;1.30;;
13590;SDS011;6866;50.778;7.206;2023-04-03T14:21:44;5.78;;;1.65;;
13590;SDS011;6866;50.778;7.206;2023-04-03T14:24:10;3.92;;;1.40;;
13590;SDS011;6866;50.778;7.206;2023-04-03T14:26:36;3.08;;;1.23;;
13590;SDS011;6866;50.778;7.206;2023-04-03T14:29:02;4.13;;;1.20;;
13590;SDS011;6866;50.778;7.206;2023-04-03T14:31:28;3.67;;;1.23;;
13590;SDS011;6866;50.778;7.206;2023-04-03T14:33:53;4.68;;;1.52;;
13590;SDS011;6866;50.778;7.206;2023-04-03T14:36:20;4.22;;;1.30;;
13590;SDS011;6866;50.778;7.206;2023-04-03T14:38:49;6.30;;;1.35;;
13590;SDS011;6866;50.778;7.206;2023-04-03T14:41:15;6.68;;;1.60;;
13590;SDS011;6866;50.778;7.206;2023-04-03T14:43:43;3.83;;;1.23;;
13590;SDS011;6866;50.778;7.206;2023-04-03T14:46:13;5.00;;;1.80;;
13590;SDS011;6866;50.778;7.206;2023-04-03T14:48:38;6.00;;;1.50;;
13590;SDS011;6866;50.778;7.206;2023-04-03T14:51:04;4.25;;;1.25;;
13590;SDS011;6866;50.778;7.206;2023-04-03T14:53:30;4.93;;;1.73;;
13590;SDS011;6866;50.778;7.206;2023-04-03T14:55:57;5.68;;;1.95;;
13590;SDS011;6866;50.778;7.206;2023-04-03T14:58:23;5.88;;;2.28;;
13590;SDS011;6866;50.778;7.206;2023-04-03T15:00:49;4.03;;;1.40;;
13590;SDS011;6866;50.778;7.206;2023-04-03T15:03:15;4.00;;;1.20;;
13590;SDS011;6866;50.778;7.206;2023-04-03T15:05:43;7.82;;;1.50;;
13590;SDS011;6866;50.778;7.206;2023-04-03T15:08:16;4.43;;;1.30;;
13590;SDS011;6866;50.778;7.206;2023-04-03T15:10:47;3.42;;;1.30;;
13590;SDS011;6866;50.778;7.206;2023-04-03T15:13:13;19.23;;;1.75;;
13590;SDS011;6866;50.778;7.206;2023-04-03T15:15:38;3.60;;;1.50;;
13590;SDS011;6866;50.778;7.206;2023-04-03T15:18:04;3.90;;;1.25;;
13590;SDS011;6866;50.778;7.206;2023-04-03T15:20:31;4.00;;;1.25;;
13590;SDS011;6866;50.778;7.206;2023-04-03T15:22:58;3.75;;;1.50;;
13590;SDS011;6866;50.778;7.206;2023-04-03T15:25:27;4.38;;;1.25;;
13590;SDS011;6866;50.778;7.206;2023-04-03T15:27:54;4.47;;;1.20;;
13590;SDS011;6866;50.778;7.206;2023-04-03T15:30:20;11.18;;;1.92;;
13590;SDS011;6866;50.778;7.206;2023-04-03T15:32:46;5.60;;;1.35;;
13590;SDS011;6866;50.778;7.206;2023-04-03T15:35:13;3.60;;;1.25;;
13590;SDS011;6866;50.778;7.206;2023-04-03T15:37:39;4.53;;;1.40;;
13590;SDS011;6866;50.778;7.206;2023-04-03T15:40:05;3.95;;;1.20;;
13590;SDS011;6866;50.778;7.206;2023-04-03T15:42:31;4.70;;;1.92;;
13590;SDS011;6866;50.778;7.206;2023-04-03T15:44:57;4.57;;;1.20;;
13590;SDS011;6866;50.778;7.206;2023-04-03T15:47:22;4.55;;;0.95;;
13590;SDS011;6866;50.778;7.206;2023-04-03T15:49:49;6.50;;;1.40;;
13590;SDS011;6866;50.778;7.206;2023-04-03T15:52:15;4.53;;;1.20;;
13590;SDS011;6866;50.778;7.206;2023-04-03T15:54:41;4.53;;;1.20;;
13590;SDS011;6866;50.778;7.206;2023-04-03T15:57:06;4.20;;;1.27;;
13590;SDS011;6866;50.778;7.206;2023-04-03T15:59:32;4.80;;;1.25;;
13590;SDS011;6866;50.778;7.206;2023-04-03T16:01:57;4.43;;;1.30;;
13590;SDS011;6866;50.778;7.206;2023-04-03T16:04:25;4.68;;;1.00;;
13590;SDS011;6866;50.778;7.206;2023-04-03T16:06:51;5.05;;;1.27;;
13590;SDS011;6866;50.778;7.206;2023-04-03T16:09:17;3.60;;;1.10;;
13590;SDS011;6866;50.778;7.206;2023-04-03T16:11:42;5.65;;;1.33;;
13590;SDS011;6866;50.778;7.206;2023-04-03T16:14:08;4.90;;;1.20;;
13590;SDS011;6866;50.778;7.206;2023-04-03T16:16:34;5.53;;;1.13;;
13590;SDS011;6866;50.778;7.206;2023-04-03T16:19:01;3.35;;;1.10;;
13590;SDS011;6866;50.778;7.206;2023-04-03T16:21:27;5.00;;;1.20;;
13590;SDS011;6866;50.778;7.206;2023-04-03T16:23:54;3.28;;;1.10;;
13590;SDS011;6866;50.778;7.206;2023-04-03T16:26:22;4.10;;;1.05;;
13590;SDS011;6866;50.778;7.206;2023-04-03T16:28:47;3.30;;;1.50;;
13590;SDS011;6866;50.778;7.206;2023-04-03T16:31:13;4.75;;;1.55;;
13590;SDS011;6866;50.778;7.206;2023-04-03T16:33:39;3.40;;;1.08;;
13590;SDS011;6866;50.778;7.206;2023-04-03T16:36:04;2.78;;;1.17;;
13590;SDS011;6866;50.778;7.206;2023-04-03T16:38:30;4.57;;;1.17;;
13590;SDS011;6866;50.778;7.206;2023-04-03T16:40:57;4.25;;;1.33;;
13590;SDS011;6866;50.778;7.206;2023-04-03T16:43:24;3.03;;;0.95;;
13590;SDS011;6866;50.778;7.206;2023-04-03T16:45:50;4.85;;;1.40;;
13590;SDS011;6866;50.778;7.206;2023-04-03T16:48:16;3.50;;;1.13;;
13590;SDS011;6866;50.778;7.206;2023-04-03T16:50:42;3.75;;;1.33;;
13590;SDS011;6866;50.778;7.206;2023-04-03T16:53:12;3.50;;;1.17;;
13590;SDS011;6866;50.778;7.206;2023-04-03T16:55:38;5.88;;;1.40;;
13590;SDS011;6866;50.778;7.206;2023-04-03T16:58:05;4.20;;;1.30;;
13590;SDS011;6866;50.778;7.206;2023-04-03T17:00:31;4.70;;;1.10;;
13590;SDS011;6866;50.778;7.206;2023-04-03T17:02:57;3.38;;;1.08;;
13590;SDS011;6866;50.778;7.206;2023-04-03T17:05:22;3.33;;;1.23;;
13590;SDS011;6866;50.778;7.206;2023-04-03T17:07:49;4.53;;;1.00;;
13590;SDS011;6866;50.778;7.206;2023-04-03T17:10:15;3.88;;;1.23;;
13590;SDS011;6866;50.778;7.206;2023-04-03T17:12:41;2.95;;;1.00;;
13590;SDS011;6866;50.778;7.206;2023-04-03T17:15:06;3.75;;;1.17;;
13590;SDS011;6866;50.778;7.206;2023-04-03T17:17:32;2.92;;;1.00;;